createdAt,value
2023-03-16T00:01:08.053Z,65.37
2023-03-16T00:03:36.980Z,65.55
2023-03-16T00:06:05.936Z,65.60
2023-03-16T00:08:38.721Z,65.75
2023-03-16T00:11:07.615Z,65.83
2023-03-16T00:13:36.759Z,65.74
2023-03-16T00:16:05.354Z,65.66
2023-03-16T00:18:39.188Z,65.65
2023-03-16T00:21:07.703Z,65.58
2023-03-16T00:23:37.674Z,65.60
2023-03-16T00:26:08.716Z,65.60
2023-03-16T00:28:39.370Z,65.55
2023-03-16T00:31:12.039Z,65.36
2023-03-16T00:35:23.654Z,65.93
2023-03-16T00:37:52.184Z,65.43
2023-03-16T00:40:20.613Z,65.56
2023-03-16T00:42:48.746Z,65.65
2023-03-16T00:45:18.393Z,65.72
2023-03-16T00:47:46.856Z,65.85
2023-03-16T00:50:15.869Z,65.87
2023-03-16T00:52:44.654Z,65.91
2023-03-16T00:55:13.237Z,65.94
2023-03-16T00:57:45.306Z,65.88
2023-03-16T01:00:17.274Z,65.92
2023-03-16T01:02:50.280Z,65.80
2023-03-16T01:05:20.084Z,65.80
2023-03-16T01:07:48.961Z,65.96
2023-03-16T01:10:18.154Z,66.34
2023-03-16T01:12:46.945Z,66.51
2023-03-16T01:15:15.433Z,66.56
2023-03-16T01:17:44.659Z,66.55
2023-03-16T01:20:15.974Z,66.42
2023-03-16T01:22:45.316Z,66.23
2023-03-16T01:25:13.657Z,66.12
2023-03-16T01:27:43.340Z,65.94
2023-03-16T01:30:12.724Z,66.01
2023-03-16T01:32:41.949Z,66.01
2023-03-16T01:35:14.032Z,65.72
2023-03-16T01:37:42.410Z,65.66
2023-03-16T01:40:17.155Z,65.80
2023-03-16T01:42:48.860Z,65.71
2023-03-16T01:45:55.742Z,65.65
2023-03-16T01:48:25.498Z,65.71
2023-03-16T01:50:54.484Z,65.76
2023-03-16T01:53:24.501Z,65.86
2023-03-16T01:55:55.356Z,66.04
2023-03-16T01:58:23.925Z,66.03
2023-03-16T02:00:52.299Z,65.89
2023-03-16T02:03:23.445Z,65.95
2023-03-16T02:06:03.609Z,66.20
2023-03-16T02:08:33.825Z,66.23
2023-03-16T02:11:02.044Z,66.25
2023-03-16T02:13:49.423Z,66.23
2023-03-16T02:16:19.597Z,66.35
2023-03-16T02:18:50.458Z,66.29
2023-03-16T02:21:33.322Z,66.18
2023-03-16T02:24:02.632Z,66.18
2023-03-16T02:26:40.506Z,66.01
2023-03-16T02:29:21.376Z,66.17
2023-03-16T02:31:52.320Z,66.10
2023-03-16T02:34:21.627Z,65.94
2023-03-16T02:36:50.116Z,65.93
2023-03-16T02:39:19.099Z,65.73
2023-03-16T02:41:47.474Z,65.62
2023-03-16T02:44:18.854Z,65.85
2023-03-16T02:46:47.328Z,65.88
2023-03-16T02:49:28.353Z,65.78
2023-03-16T02:51:57.783Z,65.65
2023-03-16T02:54:26.267Z,66.01
2023-03-16T02:56:54.744Z,66.29
2023-03-16T02:59:23.127Z,66.26
2023-03-16T03:01:58.787Z,66.31
2023-03-16T03:04:27.085Z,66.35
2023-03-16T03:06:55.344Z,66.26
2023-03-16T03:09:24.012Z,66.33
2023-03-16T03:11:54.446Z,66.25
2023-03-16T03:14:25.789Z,66.37
2023-03-16T03:16:55.092Z,66.50
2023-03-16T03:19:23.322Z,66.43
2023-03-16T03:21:57.008Z,66.52
2023-03-16T03:24:25.373Z,66.44
2023-03-16T03:26:53.627Z,66.23
2023-03-16T03:29:22.384Z,65.98
2023-03-16T03:31:50.703Z,66.05
2023-03-16T03:34:24.407Z,65.97
2023-03-16T03:36:53.912Z,65.63
2023-03-16T03:39:22.485Z,65.48
2023-03-16T03:41:55.881Z,65.41
2023-03-16T03:44:24.380Z,65.29
2023-03-16T03:46:53.638Z,65.25
2023-03-16T03:49:22.760Z,65.36
2023-03-16T03:51:52.339Z,65.42
2023-03-16T03:54:26.391Z,65.39
2023-03-16T03:57:05.444Z,65.60
2023-03-16T03:59:35.424Z,65.73
2023-03-16T04:02:24.172Z,65.68
2023-03-16T04:04:58.661Z,65.36
2023-03-16T04:07:26.883Z,65.31
2023-03-16T04:09:56.590Z,65.46
2023-03-16T04:12:37.163Z,65.39
2023-03-16T04:15:06.559Z,65.44
2023-03-16T04:17:44.869Z,65.53
2023-03-16T04:20:14.714Z,65.49
2023-03-16T04:22:43.984Z,65.44
2023-03-16T04:25:17.051Z,65.15
2023-03-16T04:27:47.053Z,65.23
2023-03-16T04:30:16.697Z,65.13
2023-03-16T04:32:49.540Z,65.12
2023-03-16T04:35:20.405Z,65.03
2023-03-16T04:37:51.465Z,65.23
2023-03-16T04:40:21.191Z,65.20
2023-03-16T04:42:54.988Z,65.19
2023-03-16T04:45:24.896Z,65.40
2023-03-16T04:47:53.806Z,65.43
2023-03-16T04:50:23.293Z,65.52
2023-03-16T04:52:54.479Z,65.63
2023-03-16T04:55:25.250Z,65.75
2023-03-16T04:57:54.882Z,65.62
2023-03-16T05:00:23.876Z,65.67
2023-03-16T05:02:58.910Z,65.80
2023-03-16T05:05:27.237Z,66.17
2023-03-16T05:07:56.078Z,66.57
2023-03-16T05:10:26.741Z,67.46
2023-03-16T05:12:55.227Z,68.28
2023-03-16T05:15:24.866Z,69.15
2023-03-16T05:18:13.460Z,69.29
2023-03-16T05:20:42.449Z,69.43
2023-03-16T05:23:11.958Z,69.59
2023-03-16T05:25:48.126Z,69.74
2023-03-16T05:28:16.977Z,69.74
2023-03-16T05:30:51.926Z,69.74
2023-03-16T05:33:23.497Z,69.49
2023-03-16T05:35:57.758Z,69.47
2023-03-16T05:38:27.646Z,69.39
2023-03-16T05:41:02.907Z,69.48
2023-03-16T05:43:45.585Z,69.56
2023-03-16T05:46:14.590Z,69.55
2023-03-16T05:48:43.876Z,69.67
2023-03-16T05:51:17.608Z,69.64
2023-03-16T05:53:46.677Z,69.72
2023-03-16T05:56:22.021Z,69.63
2023-03-16T05:58:52.233Z,69.93
2023-03-16T06:01:20.775Z,70.35
2023-03-16T06:03:49.385Z,70.63
2023-03-16T06:06:21.745Z,70.75
2023-03-16T06:09:03.684Z,70.33
2023-03-16T06:11:33.184Z,70.16
2023-03-16T06:14:02.419Z,70.25
2023-03-16T06:16:33.189Z,70.11
2023-03-16T06:19:01.809Z,69.82
2023-03-16T06:21:31.631Z,69.59
2023-03-16T06:24:09.527Z,69.31
2023-03-16T06:26:38.522Z,69.08
2023-03-16T06:29:08.716Z,68.96
2023-03-16T06:31:41.827Z,69.02
2023-03-16T06:34:10.313Z,68.99
2023-03-16T06:36:39.955Z,68.91
2023-03-16T06:39:11.877Z,68.97
2023-03-16T06:41:46.726Z,69.09
2023-03-16T06:44:17.754Z,69.06
2023-03-16T06:46:58.576Z,69.22
2023-03-16T06:49:27.415Z,69.32
2023-03-16T06:51:58.272Z,69.39
2023-03-16T06:54:28.370Z,69.65
2023-03-16T06:56:57.158Z,69.95
2023-03-16T06:59:25.438Z,70.04
2023-03-16T07:01:54.437Z,70.53
2023-03-16T07:04:23.363Z,70.85
2023-03-16T07:06:51.788Z,71.13
2023-03-16T07:09:22.331Z,71.14
2023-03-16T07:11:53.101Z,71.30
2023-03-16T07:14:23.690Z,71.45
2023-03-16T07:16:57.167Z,71.39
2023-03-16T07:19:26.182Z,71.34
2023-03-16T07:21:58.214Z,71.38
2023-03-16T07:24:26.991Z,71.62
2023-03-16T07:26:55.652Z,71.82
2023-03-16T07:29:30.862Z,71.79
2023-03-16T07:31:59.321Z,71.72
2023-03-16T07:34:34.480Z,71.69
2023-03-16T07:37:03.585Z,71.84
2023-03-16T07:39:33.132Z,71.90
2023-03-16T07:42:08.856Z,71.96
2023-03-16T07:44:51.331Z,72.06
2023-03-16T07:47:20.672Z,72.22
2023-03-16T07:49:50.052Z,72.54
2023-03-16T07:52:18.708Z,72.44
2023-03-16T07:54:49.105Z,72.45
2023-03-16T07:57:17.643Z,72.48
2023-03-16T07:59:47.776Z,72.51
2023-03-16T08:02:19.643Z,72.29
2023-03-16T08:04:48.718Z,72.21
2023-03-16T08:07:17.712Z,72.33
2023-03-16T08:10:01.203Z,72.16
2023-03-16T08:12:35.166Z,72.04
2023-03-16T08:15:06.105Z,72.00
2023-03-16T08:17:34.828Z,71.98
2023-03-16T08:20:10.870Z,72.08
2023-03-16T08:22:46.701Z,72.07
2023-03-16T08:25:16.428Z,72.24
2023-03-16T08:27:53.701Z,72.35
2023-03-16T08:30:23.015Z,72.34
2023-03-16T08:33:01.669Z,72.32
2023-03-16T08:35:31.737Z,72.33
2023-03-16T08:38:00.289Z,72.29
2023-03-16T08:40:30.136Z,72.22
2023-03-16T08:42:59.331Z,72.15
2023-03-16T08:45:28.130Z,72.18
2023-03-16T08:47:56.708Z,72.09
2023-03-16T08:50:28.598Z,71.94
2023-03-16T08:52:57.253Z,71.98
2023-03-16T08:55:26.768Z,71.99
2023-03-16T08:57:55.249Z,71.95
2023-03-16T09:00:23.927Z,71.66
2023-03-16T09:02:52.200Z,71.20
2023-03-16T09:05:20.711Z,71.14
2023-03-16T09:07:49.167Z,71.02
2023-03-16T09:10:23.332Z,70.86
2023-03-16T09:12:52.473Z,70.67
2023-03-16T09:15:20.882Z,70.62
2023-03-16T09:17:49.335Z,70.68
2023-03-16T09:20:22.663Z,70.82
2023-03-16T09:23:07.773Z,70.93
2023-03-16T09:25:37.107Z,71.19
2023-03-16T09:28:05.791Z,71.19
2023-03-16T09:30:35.396Z,71.10
2023-03-16T09:33:04.872Z,70.93
2023-03-16T09:35:37.284Z,70.88
2023-03-16T09:38:07.545Z,70.95
2023-03-16T09:40:36.296Z,71.06
2023-03-16T09:43:13.682Z,71.20
2023-03-16T09:45:48.895Z,71.28
2023-03-16T09:48:21.221Z,71.26
2023-03-16T09:50:49.849Z,71.27
2023-03-16T09:53:26.348Z,70.93
2023-03-16T09:56:13.671Z,70.66
2023-03-16T09:58:41.945Z,70.39
2023-03-16T10:01:16.690Z,70.24
2023-03-16T10:04:08.009Z,70.28
2023-03-16T10:06:51.117Z,70.21
2023-03-16T10:09:39.793Z,69.99
2023-03-16T10:12:08.972Z,70.05
2023-03-16T10:14:47.720Z,70.12
2023-03-16T10:17:18.081Z,70.13
2023-03-16T10:19:54.497Z,70.10
2023-03-16T10:22:26.700Z,70.09
2023-03-16T10:25:02.033Z,70.10
2023-03-16T10:27:32.345Z,69.59
2023-03-16T10:30:01.765Z,69.52
2023-03-16T10:32:32.231Z,69.53
2023-03-16T10:35:21.106Z,69.68
2023-03-16T10:37:49.551Z,69.70
2023-03-16T10:40:20.531Z,69.74
2023-03-16T10:42:48.903Z,69.79
2023-03-16T10:45:25.751Z,69.51
2023-03-16T10:47:54.685Z,69.62
2023-03-16T10:50:25.431Z,69.69
2023-03-16T10:52:54.730Z,69.68
2023-03-16T10:55:32.670Z,69.49
2023-03-16T10:58:02.232Z,69.43
2023-03-16T11:00:37.981Z,69.43
2023-03-16T11:03:14.859Z,69.47
2023-03-16T11:05:43.241Z,69.39
2023-03-16T11:08:19.824Z,69.25
2023-03-16T11:10:57.681Z,69.42
2023-03-16T11:13:33.537Z,69.44
2023-03-16T11:16:23.249Z,69.29
2023-03-16T11:19:15.179Z,69.23
2023-03-16T11:21:46.891Z,69.14
2023-03-16T11:24:24.021Z,69.04
2023-03-16T11:26:57.746Z,68.84
2023-03-16T11:29:47.616Z,68.86
2023-03-16T11:32:26.782Z,68.99
2023-03-16T11:34:55.532Z,69.13
2023-03-16T11:37:43.128Z,68.78
2023-03-16T11:40:45.648Z,68.83
2023-03-16T11:43:41.816Z,68.81
2023-03-16T11:46:32.316Z,68.81
2023-03-16T11:49:19.204Z,68.92
2023-03-16T11:51:51.863Z,68.85
2023-03-16T11:54:41.727Z,68.97
2023-03-16T11:57:28.650Z,68.90
2023-03-16T12:00:13.032Z,68.74
2023-03-16T12:02:50.683Z,68.78
2023-03-16T12:05:37.321Z,68.84
2023-03-16T12:08:17.261Z,69.03
2023-03-16T12:10:58.767Z,69.01
2023-03-16T12:13:38.896Z,68.86
2023-03-16T12:16:39.067Z,68.81
2023-03-16T12:19:18.203Z,68.80
2023-03-16T12:21:46.944Z,68.73
2023-03-16T12:24:17.930Z,68.65
2023-03-16T12:26:49.848Z,68.76
2023-03-16T12:29:33.836Z,68.99
2023-03-16T12:32:04.927Z,68.96
2023-03-16T12:34:53.413Z,68.92
2023-03-16T12:37:54.158Z,68.98
2023-03-16T12:40:42.726Z,69.16
2023-03-16T12:43:29.385Z,69.06
2023-03-16T12:45:57.636Z,68.94
2023-03-16T12:48:44.993Z,68.96
2023-03-16T12:52:58.741Z,69.53
2023-03-16T12:55:40.417Z,69.17
2023-03-16T12:58:08.793Z,69.08
2023-03-16T13:00:40.772Z,68.92
2023-03-16T13:03:15.726Z,68.91
2023-03-16T13:05:45.868Z,68.79
2023-03-16T13:08:16.128Z,68.66
2023-03-16T13:11:10.939Z,68.72
2023-03-16T13:14:02.128Z,68.79
2023-03-16T13:16:33.610Z,69.00
2023-03-16T13:19:27.694Z,69.12
2023-03-16T13:22:28.835Z,69.28
2023-03-16T13:25:23.602Z,69.43
2023-03-16T13:27:53.433Z,69.71
2023-03-16T13:30:30.246Z,69.76
2023-03-16T13:33:15.397Z,70.04
2023-03-16T13:35:44.265Z,70.33
2023-03-16T13:38:20.197Z,70.27
2023-03-16T13:40:50.087Z,70.26
2023-03-16T13:43:20.075Z,70.24
2023-03-16T13:45:48.667Z,70.28
2023-03-16T13:48:18.385Z,70.16
2023-03-16T13:50:57.542Z,70.08
2023-03-16T13:53:30.644Z,70.06
2023-03-16T13:56:04.426Z,69.95
2023-03-16T13:58:36.257Z,69.63
2023-03-16T14:01:33.577Z,69.47
2023-03-16T14:04:13.896Z,69.56
2023-03-16T14:06:56.305Z,69.41
2023-03-16T14:09:27.630Z,69.12
2023-03-16T14:11:57.036Z,69.26
2023-03-16T14:14:31.002Z,69.61
2023-03-16T14:17:12.025Z,69.68
2023-03-16T14:19:52.380Z,69.46
2023-03-16T14:22:23.947Z,69.26
2023-03-16T14:24:55.074Z,69.20
2023-03-16T14:29:37.469Z,69.57
2023-03-16T14:33:36.184Z,69.39
2023-03-16T14:36:16.271Z,69.12
2023-03-16T14:38:49.393Z,68.69
2023-03-16T14:41:26.068Z,68.54
2023-03-16T14:44:05.103Z,68.54
2023-03-16T14:46:44.676Z,68.48
2023-03-16T14:49:25.132Z,68.28
2023-03-16T14:52:41.756Z,68.30
2023-03-16T14:55:21.068Z,69.09
2023-03-16T14:57:57.994Z,69.01
2023-03-16T15:00:33.024Z,68.83
2023-03-16T15:03:16.082Z,68.99
2023-03-16T15:05:56.312Z,68.99
2023-03-16T15:08:35.498Z,68.89
2023-03-16T15:11:07.491Z,68.77
2023-03-16T15:13:53.501Z,68.90
2023-03-16T15:16:23.493Z,69.16
2023-03-16T15:18:52.113Z,69.12
2023-03-16T15:21:25.158Z,69.29
2023-03-16T15:23:58.838Z,69.39
2023-03-16T15:26:28.811Z,69.66
2023-03-16T15:28:57.366Z,69.78
2023-03-16T15:31:26.286Z,69.96
2023-03-16T15:33:54.626Z,70.06
2023-03-16T15:36:24.454Z,70.26
2023-03-16T15:38:54.804Z,70.13
2023-03-16T15:41:23.677Z,70.33
2023-03-16T15:44:00.773Z,70.49
2023-03-16T15:46:29.630Z,70.38
2023-03-16T15:48:58.040Z,70.56
2023-03-16T15:51:27.929Z,70.72
2023-03-16T15:53:59.644Z,70.72
2023-03-16T15:56:30.428Z,70.51
2023-03-16T15:59:10.973Z,70.45
2023-03-16T16:01:47.910Z,70.54
2023-03-16T16:04:19.944Z,70.70
2023-03-16T16:06:48.603Z,70.36
2023-03-16T16:09:17.397Z,70.38
2023-03-16T16:11:47.416Z,70.47
2023-03-16T16:14:23.134Z,70.36
2023-03-16T16:16:51.883Z,70.32
2023-03-16T16:19:20.231Z,70.63
2023-03-16T16:21:49.256Z,70.88
2023-03-16T16:24:18.612Z,70.31
2023-03-16T16:26:54.801Z,70.06
2023-03-16T16:29:25.788Z,70.10
2023-03-16T16:31:55.659Z,70.16
2023-03-16T16:34:25.839Z,70.39
2023-03-16T16:36:55.786Z,70.08
2023-03-16T16:39:24.473Z,70.31
2023-03-16T16:41:58.089Z,70.26
2023-03-16T16:44:28.115Z,70.42
2023-03-16T16:46:59.807Z,70.48
2023-03-16T16:49:31.121Z,70.35
2023-03-16T16:51:59.825Z,70.29
2023-03-16T16:54:29.840Z,70.46
2023-03-16T16:56:59.238Z,70.58
2023-03-16T16:59:31.499Z,70.52
2023-03-16T17:02:01.147Z,70.63
2023-03-16T17:04:32.147Z,70.67
2023-03-16T17:07:03.043Z,70.26
2023-03-16T17:09:35.428Z,69.98
2023-03-16T17:12:05.038Z,69.97
2023-03-16T17:14:33.959Z,70.19
2023-03-16T17:17:07.246Z,70.06
2023-03-16T17:19:36.469Z,69.76
2023-03-16T17:22:06.351Z,69.65
2023-03-16T17:24:34.706Z,69.56
2023-03-16T17:27:04.641Z,69.33
2023-03-16T17:29:33.746Z,69.24
2023-03-16T17:32:05.040Z,69.16
2023-03-16T17:34:33.470Z,69.29
2023-03-16T17:37:08.693Z,69.19
2023-03-16T17:39:39.755Z,69.07
2023-03-16T17:42:12.865Z,69.07
2023-03-16T17:44:43.257Z,69.02
2023-03-16T17:47:14.503Z,68.86
2023-03-16T17:49:45.029Z,68.95
2023-03-16T17:52:18.969Z,68.99
2023-03-16T17:54:51.433Z,68.88
2023-03-16T17:57:27.677Z,68.95
2023-03-16T17:59:55.956Z,69.00
2023-03-16T18:02:31.195Z,68.65
2023-03-16T18:05:00.505Z,68.29
2023-03-16T18:07:28.996Z,68.20
2023-03-16T18:10:20.098Z,68.12
2023-03-16T18:13:00.143Z,67.98
2023-03-16T18:15:32.079Z,67.96
2023-03-16T18:18:01.038Z,67.83
2023-03-16T18:20:34.546Z,67.63
2023-03-16T18:23:15.573Z,67.34
2023-03-16T18:25:44.161Z,67.24
2023-03-16T18:28:14.029Z,67.06
2023-03-16T18:30:44.912Z,66.91
2023-03-16T18:33:25.069Z,66.78
2023-03-16T18:35:54.807Z,66.71
2023-03-16T18:38:33.215Z,66.62
2023-03-16T18:41:03.609Z,66.60
2023-03-16T18:43:32.103Z,66.53
2023-03-16T18:46:00.276Z,66.34
2023-03-16T18:48:31.218Z,66.01
2023-03-16T18:51:01.132Z,65.88
2023-03-16T18:53:29.836Z,66.05
2023-03-16T18:55:58.848Z,65.86
2023-03-16T18:58:27.066Z,65.53
2023-03-16T19:00:59.224Z,65.44
2023-03-16T19:03:29.913Z,65.45
2023-03-16T19:05:59.927Z,65.44
2023-03-16T19:08:28.800Z,65.25
2023-03-16T19:11:01.084Z,65.28
2023-03-16T19:13:30.154Z,65.32
2023-03-16T19:15:58.731Z,65.26
2023-03-16T19:18:27.424Z,65.08
2023-03-16T19:20:56.723Z,65.02
2023-03-16T19:23:31.152Z,64.99
2023-03-16T19:25:59.322Z,64.87
2023-03-16T19:28:34.803Z,64.87
2023-03-16T19:31:28.102Z,64.94
2023-03-16T19:33:57.327Z,64.89
2023-03-16T19:36:30.405Z,64.77
2023-03-16T19:39:00.539Z,64.82
2023-03-16T19:41:33.937Z,64.73
2023-03-16T19:44:16.221Z,64.76
2023-03-16T19:46:44.417Z,64.76
2023-03-16T19:49:17.725Z,64.72
2023-03-16T19:51:51.274Z,64.76
2023-03-16T19:54:24.515Z,64.78
2023-03-16T19:56:53.707Z,64.82
2023-03-16T19:59:23.110Z,64.63
2023-03-16T20:01:51.694Z,64.65
2023-03-16T20:04:24.245Z,64.84
2023-03-16T20:06:54.289Z,64.82
2023-03-16T20:09:23.015Z,64.97
2023-03-16T20:11:51.355Z,65.01
2023-03-16T20:14:32.169Z,65.11
2023-03-16T20:17:01.279Z,65.29
2023-03-16T20:19:31.760Z,65.14
2023-03-16T20:22:00.229Z,65.25
2023-03-16T20:24:29.092Z,65.45
2023-03-16T20:27:03.878Z,65.43
2023-03-16T20:29:32.334Z,65.28
2023-03-16T20:32:01.385Z,65.40
2023-03-16T20:34:31.478Z,65.19
2023-03-16T20:36:59.933Z,64.91
2023-03-16T20:39:28.932Z,64.79
2023-03-16T20:41:57.920Z,64.68
2023-03-16T20:44:28.132Z,65.03
2023-03-16T20:46:57.350Z,65.47
2023-03-16T20:49:30.687Z,65.49
2023-03-16T20:52:16.463Z,65.76
2023-03-16T20:54:45.422Z,66.40
2023-03-16T20:57:21.776Z,66.49
2023-03-16T20:59:51.902Z,66.06
2023-03-16T21:02:29.181Z,65.86
2023-03-16T21:04:59.285Z,66.08
2023-03-16T21:07:27.948Z,65.55
2023-03-16T21:09:56.454Z,65.21
2023-03-16T21:12:36.350Z,65.20
2023-03-16T21:15:15.143Z,65.40
2023-03-16T21:17:45.883Z,65.51
2023-03-16T21:20:20.653Z,65.70
2023-03-16T21:22:49.112Z,65.90
2023-03-16T21:25:32.801Z,66.26
2023-03-16T21:28:03.462Z,66.22
2023-03-16T21:30:44.690Z,66.25
2023-03-16T21:33:36.168Z,66.39
2023-03-16T21:36:07.248Z,66.78
2023-03-16T21:38:36.397Z,67.02
2023-03-16T21:41:05.197Z,67.20
2023-03-16T21:43:36.434Z,67.28
2023-03-16T21:46:05.814Z,67.14
2023-03-16T21:48:38.213Z,66.97
2023-03-16T21:51:19.125Z,66.87
2023-03-16T21:53:48.094Z,67.08
2023-03-16T21:56:18.812Z,67.01
2023-03-16T21:58:47.532Z,66.33
2023-03-16T22:01:25.138Z,66.68
2023-03-16T22:03:57.218Z,66.65
2023-03-16T22:06:26.101Z,66.55
2023-03-16T22:08:55.997Z,66.84
2023-03-16T22:11:28.160Z,66.71
2023-03-16T22:13:57.744Z,66.46
2023-03-16T22:16:28.118Z,66.56
2023-03-16T22:18:57.032Z,66.53
2023-03-16T22:21:39.033Z,66.49
2023-03-16T22:24:28.050Z,66.61
2023-03-16T22:26:56.911Z,66.54
2023-03-16T22:29:29.352Z,66.49
2023-03-16T22:32:04.457Z,66.10
2023-03-16T22:34:38.532Z,66.22
2023-03-16T22:37:07.140Z,66.12
2023-03-16T22:39:37.812Z,66.18
2023-03-16T22:42:27.738Z,66.21
2023-03-16T22:44:56.221Z,66.07
2023-03-16T22:47:28.188Z,65.80
2023-03-16T22:49:56.748Z,66.05
2023-03-16T22:52:29.754Z,66.04
2023-03-16T22:54:59.264Z,65.99
2023-03-16T22:57:27.843Z,66.22
2023-03-16T23:00:01.555Z,66.33
2023-03-16T23:02:30.745Z,66.21
2023-03-16T23:04:59.114Z,66.23
2023-03-16T23:07:28.424Z,66.32
2023-03-16T23:09:56.909Z,66.34
2023-03-16T23:12:26.435Z,66.07
2023-03-16T23:14:55.407Z,65.99
2023-03-16T23:17:24.010Z,66.08
2023-03-16T23:19:54.933Z,66.08
2023-03-16T23:22:24.343Z,65.96
2023-03-16T23:24:52.663Z,66.37
2023-03-16T23:27:22.944Z,66.94
2023-03-16T23:29:51.314Z,67.12
2023-03-16T23:32:19.602Z,67.24
2023-03-16T23:34:47.811Z,67.30
2023-03-16T23:37:16.584Z,67.32
2023-03-16T23:39:44.738Z,67.24
2023-03-16T23:42:12.858Z,67.32
2023-03-16T23:44:42.829Z,67.36
2023-03-16T23:47:11.261Z,67.34
2023-03-16T23:49:40.048Z,67.10
2023-03-16T23:52:10.821Z,66.71
2023-03-16T23:54:39.200Z,66.49
2023-03-16T23:57:08.925Z,66.70
2023-03-16T23:59:37.501Z,66.63
